Time;durP1;ratioP1;P1;durP2;ratioP2;P2;SDS_P1;SDS_P2;PMS_P1;PMS_P2;Temp;Humidity;BMP_temperature;BMP_pressure;BME280_temperature;BME280_humidity;BME280_pressure;Samples;Min_cycle;Max_cycle;Signal;HPM_P1;HPM_P2
2022/11/07 05:00:13;;;;;;;5.90;3.60;;;10.60;99.90;;;;;;6118676;23;21478;31
2022/11/07 05:02:40;;;;;;;6.87;4.13;;;10.60;99.90;;;;;;4948602;28;20481;-74
2022/11/07 05:05:08;;;;;;;5.00;3.60;;;10.60;99.90;;;;;;4948630;29;20468;-74
2022/11/07 05:07:34;;;;;;;4.90;4.10;;;10.70;99.90;;;;;;4949127;28;20461;-71
2022/11/07 05:10:01;;;;;;;4.80;3.87;;;10.60;99.90;;;;;;4949413;29;20466;-70
2022/11/07 05:12:28;;;;;;;5.47;2.80;;;10.60;99.90;;;;;;4948875;28;21001;-70
2022/11/07 05:14:54;;;;;;;3.67;2.63;;;10.70;99.90;;;;;;4948488;29;20974;-76
2022/11/07 05:17:23;;;;;;;5.40;2.93;;;10.70;99.90;;;;;;4949292;29;20508;-70
2022/11/07 05:19:50;;;;;;;3.70;2.60;;;10.70;99.90;;;;;;4947806;29;20492;-71
2022/11/07 05:25:01;;;;;;;4.10;2.60;;;10.80;99.90;;;;;;4949065;29;20569;-74
2022/11/07 05:27:28;;;;;;;2.30;2.10;;;10.80;99.90;;;;;;4949432;29;20463;-71
2022/11/07 05:29:55;;;;;;;3.33;2.40;;;10.80;99.90;;;;;;4947889;29;20466;-74
2022/11/07 05:32:23;;;;;;;3.70;2.70;;;10.80;99.90;;;;;;4949257;28;20484;-70
2022/11/07 05:34:50;;;;;;;2.83;2.50;;;10.80;99.90;;;;;;4948584;29;20465;-70
2022/11/07 05:37:17;;;;;;;3.03;2.53;;;10.90;99.90;;;;;;4949167;29;20489;-71
2022/11/07 05:39:43;;;;;;;4.90;3.10;;;10.90;99.90;;;;;;4948981;29;20461;-71
2022/11/07 05:42:10;;;;;;;3.27;2.33;;;10.90;99.90;;;;;;4949296;28;20488;-71
2022/11/07 05:44:37;;;;;;;4.93;2.50;;;10.90;99.90;;;;;;4948574;29;20461;-71
2022/11/07 05:47:04;;;;;;;3.10;2.37;;;10.90;99.90;;;;;;4948625;29;20461;-71
2022/11/07 05:49:32;;;;;;;4.60;2.47;;;10.90;99.90;;;;;;4949266;29;20462;-79
2022/11/07 05:51:58;;;;;;;5.43;2.53;;;11.00;99.90;;;;;;4948757;28;20482;-71
2022/11/07 05:54:26;;;;;;;3.17;2.87;;;11.00;99.90;;;;;;4948097;29;20462;-71
2022/11/07 05:56:57;;;;;;;3.33;3.00;;;11.00;99.90;;;;;;4948682;29;20494;-72
2022/11/07 05:59:24;;;;;;;6.13;3.17;;;11.00;99.90;;;;;;4948702;29;20966;-74
2022/11/07 06:01:51;;;;;;;7.13;3.60;;;11.00;99.90;;;;;;4950138;28;20500;-79
2022/11/07 06:04:18;;;;;;;7.40;3.37;;;10.90;99.90;;;;;;4950281;29;20461;-75
2022/11/07 06:06:46;;;;;;;4.53;3.53;;;10.90;99.90;;;;;;4949773;28;20950;-74
2022/11/07 06:09:13;;;;;;;4.77;3.00;;;10.90;99.90;;;;;;4949948;29;20988;-77
2022/11/07 06:11:40;;;;;;;6.00;3.00;;;10.90;99.90;;;;;;4950633;28;21132;-73
2022/11/07 06:14:07;;;;;;;5.03;2.93;;;10.90;99.90;;;;;;4949761;29;20462;-74
2022/11/07 06:16:33;;;;;;;3.70;3.07;;;11.00;99.90;;;;;;4950689;29;20493;-75
2022/11/07 06:19:01;;;;;;;4.40;3.17;;;11.00;99.90;;;;;;4950636;29;20468;-73
2022/11/07 06:21:27;;;;;;;3.87;2.73;;;11.00;99.90;;;;;;4950555;28;20489;-80
2022/11/07 06:23:55;;;;;;;8.00;3.00;;;11.00;99.90;;;;;;4950578;29;20462;-74
2022/11/07 06:26:22;;;;;;;12.47;3.30;;;11.00;99.90;;;;;;4950026;29;20484;-74
2022/11/07 06:28:49;;;;;;;5.90;3.20;;;11.00;99.90;;;;;;4950580;29;20461;-75
2022/11/07 06:31:16;;;;;;;6.10;3.50;;;11.00;99.90;;;;;;4949588;28;20456;-75
2022/11/07 06:33:43;;;;;;;5.20;3.10;;;11.20;99.90;;;;;;4949834;29;20466;-80
2022/11/07 06:36:12;;;;;;;4.83;3.00;;;11.20;99.90;;;;;;4949645;29;20453;-74
2022/11/07 06:38:40;;;;;;;3.90;2.80;;;11.20;99.90;;;;;;4950020;29;20461;-74
2022/11/07 06:41:10;;;;;;;3.83;3.00;;;11.20;99.90;;;;;;4949942;28;20481;-74
2022/11/07 06:43:38;;;;;;;3.33;2.57;;;11.20;99.90;;;;;;4950333;29;20461;-77
2022/11/07 06:46:07;;;;;;;5.73;2.70;;;11.20;99.90;;;;;;4949323;29;20465;-74
2022/11/07 06:48:34;;;;;;;4.13;2.57;;;11.20;99.90;;;;;;4949555;29;20542;-74
2022/11/07 06:51:02;;;;;;;4.00;2.37;;;11.20;99.90;;;;;;4950063;28;20473;-73
2022/11/07 06:53:29;;;;;;;4.37;2.53;;;11.20;99.90;;;;;;4949451;29;20984;-73
2022/11/07 06:55:59;;;;;;;3.77;2.60;;;11.20;99.90;;;;;;4948937;29;20472;-74
2022/11/07 06:58:27;;;;;;;3.43;2.20;;;11.20;99.90;;;;;;4949357;29;20454;-75
2022/11/07 07:00:57;;;;;;;3.20;1.97;;;11.20;99.90;;;;;;4949172;28;20532;-76
2022/11/07 07:03:24;;;;;;;5.17;2.80;;;11.20;99.90;;;;;;4950119;29;20457;-76
2022/11/07 07:05:51;;;;;;;3.17;2.27;;;11.20;99.90;;;;;;4948329;29;20460;-76
2022/11/07 07:08:18;;;;;;;3.63;2.13;;;11.30;99.90;;;;;;4951220;29;20793;-73
2022/11/07 07:10:45;;;;;;;4.00;2.50;;;11.30;99.90;;;;;;4951089;28;20523;-77
2022/11/07 07:13:14;;;;;;;8.20;2.90;;;11.30;99.90;;;;;;4949363;29;20472;-78
2022/11/07 07:15:42;;;;;;;3.33;2.10;;;11.30;99.90;;;;;;4948192;29;20458;-79
2022/11/07 07:18:10;;;;;;;7.80;2.67;;;11.30;99.90;;;;;;4948533;28;20497;-78
2022/11/07 07:20:37;;;;;;;2.67;2.03;;;11.40;99.90;;;;;;4949403;28;20486;-77
2022/11/07 07:23:04;;;;;;;5.10;2.50;;;11.40;99.90;;;;;;4950016;29;20468;-76
2022/11/07 07:25:30;;;;;;;4.57;2.23;;;11.50;99.90;;;;;;4948534;29;20464;-76
2022/11/07 07:27:57;;;;;;;5.00;2.73;;;11.50;99.90;;;;;;4948929;29;20458;-75
2022/11/07 07:30:24;;;;;;;3.90;2.03;;;11.50;99.90;;;;;;4948950;28;20462;-78
2022/11/07 07:32:52;;;;;;;5.43;2.33;;;11.50;99.90;;;;;;4948747;29;20466;-78
2022/11/07 07:35:20;;;;;;;5.33;2.80;;;11.60;99.90;;;;;;4948198;29;20461;-78
2022/11/07 07:37:50;;;;;;;3.80;2.53;;;11.60;99.90;;;;;;4949554;29;20496;-77
2022/11/07 07:40:17;;;;;;;16.83;3.20;;;11.70;99.90;;;;;;4949211;28;20461;-76
2022/11/07 07:42:44;;;;;;;3.30;2.10;;;11.70;99.90;;;;;;4948861;29;20457;-78
2022/11/07 07:45:12;;;;;;;4.83;2.57;;;11.70;99.90;;;;;;4948408;29;20457;-75
2022/11/07 07:47:40;;;;;;;3.57;2.20;;;11.70;99.90;;;;;;4949166;29;20462;-78
2022/11/07 07:50:10;;;;;;;3.50;2.60;;;11.80;99.90;;;;;;4949143;29;20465;-76
2022/11/07 07:52:37;;;;;;;5.10;2.60;;;11.80;99.90;;;;;;4948851;29;20461;-78
2022/11/07 07:55:06;;;;;;;3.77;2.70;;;11.90;99.90;;;;;;4948717;29;20468;-77
2022/11/07 07:57:38;;;;;;;5.00;2.70;;;11.90;99.90;;;;;;4949591;29;20560;-78
2022/11/07 08:00:06;;;;;;;4.30;3.00;;;11.90;99.90;;;;;;4948924;29;20458;-77
2022/11/07 08:02:33;;;;;;;4.30;2.73;;;12.00;99.90;;;;;;4949285;28;21009;-78
2022/11/07 08:05:00;;;;;;;6.03;2.83;;;12.00;99.90;;;;;;4949293;29;20461;-78
2022/11/07 08:07:28;;;;;;;7.90;3.47;;;12.10;99.90;;;;;;4949799;29;20950;-77
2022/11/07 08:09:54;;;;;;;3.90;2.83;;;12.20;99.90;;;;;;4950026;29;20468;-78
2022/11/07 08:12:21;;;;;;;3.73;2.60;;;12.30;99.90;;;;;;4950480;28;20485;-75
2022/11/07 08:14:48;;;;;;;7.27;3.50;;;12.30;99.90;;;;;;4949035;29;20461;-77
2022/11/07 08:17:15;;;;;;;5.63;3.40;;;12.40;99.90;;;;;;4949161;29;20505;-77
2022/11/07 08:19:42;;;;;;;6.63;3.03;;;12.40;99.90;;;;;;4948752;29;20465;-77
2022/11/07 08:22:10;;;;;;;5.10;2.87;;;12.50;99.90;;;;;;4949398;28;20579;-77
2022/11/07 08:24:38;;;;;;;6.53;3.03;;;12.50;99.90;;;;;;4949045;29;20473;-77
2022/11/07 08:27:05;;;;;;;8.03;3.17;;;12.60;99.90;;;;;;4950525;29;20461;-76
2022/11/07 08:29:31;;;;;;;7.20;3.20;;;12.60;99.90;;;;;;4950063;28;20461;-78
2022/11/07 08:31:58;;;;;;;5.40;2.63;;;12.60;99.90;;;;;;4953854;28;20481;-77
2022/11/07 08:34:25;;;;;;;4.30;2.60;;;12.70;99.90;;;;;;4952985;29;20465;-77
2022/11/07 08:36:52;;;;;;;6.77;2.40;;;12.70;99.90;;;;;;4953979;29;20488;-78
2022/11/07 08:39:19;;;;;;;6.80;2.63;;;12.70;99.90;;;;;;4954176;29;20461;-79
2022/11/07 08:41:47;;;;;;;4.97;2.67;;;12.70;99.90;;;;;;4953586;28;20488;-79
2022/11/07 08:44:13;;;;;;;3.30;2.13;;;12.70;99.90;;;;;;4953627;29;20457;-79
2022/11/07 08:46:40;;;;;;;6.73;2.33;;;12.90;99.90;;;;;;4954711;29;20466;-79
2022/11/07 08:49:07;;;;;;;4.47;1.80;;;12.80;99.90;;;;;;4953926;29;20461;-75
2022/11/07 08:51:34;;;;;;;5.20;2.10;;;12.90;99.90;;;;;;4954071;28;20508;-79
2022/11/07 08:54:01;;;;;;;4.60;2.10;;;13.00;99.90;;;;;;4953180;29;20461;-79
2022/11/07 08:56:27;;;;;;;2.97;1.90;;;13.10;99.90;;;;;;4953250;29;20469;-79
2022/11/07 08:58:55;;;;;;;5.87;2.13;;;13.10;99.90;;;;;;4955121;29;20497;-77
2022/11/07 09:01:22;;;;;;;4.73;2.00;;;13.20;99.90;;;;;;4953761;28;20489;-75
2022/11/07 09:03:49;;;;;;;8.50;2.50;;;13.20;99.90;;;;;;4954471;29;20814;-78
2022/11/07 09:06:16;;;;;;;5.80;2.10;;;13.30;99.90;;;;;;4952198;29;20469;-79
2022/11/07 09:08:43;;;;;;;8.90;1.97;;;13.30;99.90;;;;;;4952813;29;20457;-78
2022/11/07 09:11:11;;;;;;;2.90;1.73;;;13.30;99.90;;;;;;4953428;28;20487;-79
2022/11/07 09:13:38;;;;;;;4.33;1.90;;;13.40;99.90;;;;;;4953878;28;20469;-79
2022/11/07 09:16:06;;;;;;;5.97;2.37;;;13.50;99.90;;;;;;4953998;29;20848;-77
2022/11/07 09:18:33;;;;;;;4.67;1.87;;;13.60;99.90;;;;;;4955172;29;20497;-76
2022/11/07 09:21:00;;;;;;;5.80;1.90;;;13.70;99.90;;;;;;4964131;28;20584;-76
2022/11/07 09:23:27;;;;;;;6.50;1.93;;;13.60;99.90;;;;;;4964700;29;20462;-75
2022/11/07 09:25:54;;;;;;;8.33;2.27;;;13.70;99.90;;;;;;4963936;29;20475;-76
2022/11/07 09:28:21;;;;;;;7.87;2.60;;;13.70;99.90;;;;;;4964511;29;20458;-75
2022/11/07 09:30:52;;;;;;;5.80;1.70;;;13.80;99.90;;;;;;4964435;28;20496;-77
2022/11/07 09:33:21;;;;;;;4.80;2.27;;;13.80;99.90;;;;;;4956115;29;20445;-77
2022/11/07 09:35:48;;;;;;;4.40;1.83;;;13.90;99.90;;;;;;4950123;29;20461;-77
2022/11/07 09:38:15;;;;;;;4.63;2.10;;;13.90;99.90;;;;;;4950191;29;20494;-78
2022/11/07 09:40:49;;;;;;;6.17;2.17;;;13.90;99.90;;;;;;4950392;28;20477;-78
2022/11/07 09:43:38;;;;;;;5.83;2.10;;;13.90;99.90;;;;;;4949995;29;20449;-78
2022/11/07 09:46:15;;;;;;;4.80;1.90;;;14.00;99.90;;;;;;4949705;29;20465;-77
2022/11/07 09:48:47;;;;;;;6.67;3.10;;;14.00;99.90;;;;;;4950751;29;20465;-77
2022/11/07 09:51:20;;;;;;;2.70;1.70;;;14.10;99.90;;;;;;4952964;28;20489;-79
2022/11/07 09:53:54;;;;;;;5.47;2.27;;;14.10;99.90;;;;;;4950647;29;20461;-78
2022/11/07 09:56:21;;;;;;;3.40;1.90;;;14.30;99.90;;;;;;4950084;29;20461;-79
2022/11/07 09:58:53;;;;;;;4.37;2.13;;;14.30;99.90;;;;;;4950594;29;20488;-78
2022/11/07 10:01:20;;;;;;;5.10;1.87;;;14.30;99.90;;;;;;4950733;28;20587;-79
2022/11/07 10:03:48;;;;;;;4.83;1.97;;;14.40;99.90;;;;;;4950955;29;20467;-79
2022/11/07 10:06:21;;;;;;;6.83;1.90;;;14.50;99.90;;;;;;4949962;28;20469;-76
2022/11/07 10:08:53;;;;;;;5.70;1.90;;;14.60;99.90;;;;;;4950452;29;20457;-78
2022/11/07 10:11:31;;;;;;;5.90;2.23;;;14.60;99.90;;;;;;4950749;28;20490;-78
2022/11/07 10:14:08;;;;;;;4.63;1.73;;;14.60;99.90;;;;;;4950682;29;20437;-76
2022/11/07 10:16:59;;;;;;;3.03;1.67;;;14.60;99.90;;;;;;4951131;29;20461;-78
2022/11/07 10:19:43;;;;;;;5.63;2.10;;;14.70;99.90;;;;;;4950531;28;20462;-76
2022/11/07 10:22:36;;;;;;;4.50;1.90;;;14.70;99.90;;;;;;4951857;28;20509;-80
2022/11/07 10:25:20;;;;;;;5.10;1.90;;;14.90;99.90;;;;;;4946595;29;20480;-75
2022/11/07 10:27:52;;;;;;;3.63;1.73;;;14.90;99.90;;;;;;4951794;29;20462;-80
2022/11/07 10:30:20;;;;;;;3.10;1.70;;;14.90;99.90;;;;;;4951025;28;20835;-78
2022/11/07 10:32:57;;;;;;;5.30;2.10;;;15.00;99.90;;;;;;4951152;29;20461;-79
2022/11/07 10:35:30;;;;;;;7.10;2.73;;;15.10;99.90;;;;;;4950685;29;20468;-79
2022/11/07 10:37:59;;;;;;;3.30;1.87;;;15.00;99.90;;;;;;4950675;29;20507;-80
2022/11/07 10:40:32;;;;;;;5.33;1.93;;;15.00;99.90;;;;;;4953033;28;20461;-79
2022/11/07 10:43:01;;;;;;;7.80;2.73;;;15.00;99.90;;;;;;4953996;29;20469;-80
2022/11/07 10:45:29;;;;;;;4.00;2.17;;;15.00;99.90;;;;;;4953231;29;20469;-76
2022/11/07 10:47:57;;;;;;;5.10;1.87;;;14.90;99.90;;;;;;4954909;29;20463;-81
2022/11/07 10:50:26;;;;;;;5.20;1.97;;;14.90;99.90;;;;;;4953489;28;20461;-79
2022/11/07 10:52:54;;;;;;;6.87;1.73;;;14.90;99.90;;;;;;4952705;28;20861;-80
2022/11/07 10:55:21;;;;;;;6.03;1.53;;;15.00;99.90;;;;;;4951797;29;20462;-80
2022/11/07 10:57:53;;;;;;;10.30;2.27;;;15.00;99.90;;;;;;4952100;29;20500;-78
2022/11/07 11:00:25;;;;;;;9.37;2.07;;;15.00;99.90;;;;;;4953120;28;20445;-80
2022/11/07 11:02:53;;;;;;;6.80;2.00;;;15.00;99.90;;;;;;4952466;29;20500;-80
2022/11/07 11:05:40;;;;;;;4.90;2.10;;;15.00;99.90;;;;;;4951070;29;21013;-80
2022/11/07 11:08:13;;;;;;;4.40;2.30;;;15.10;99.90;;;;;;4951907;29;20553;-80
2022/11/07 11:10:41;;;;;;;4.50;1.80;;;15.20;99.90;;;;;;4951691;28;20482;-80
2022/11/07 11:13:22;;;;;;;4.03;1.90;;;15.30;99.90;;;;;;4952263;29;20466;-80
2022/11/07 11:15:49;;;;;;;4.23;1.63;;;15.40;99.90;;;;;;4950822;29;20980;-79
2022/11/07 11:18:18;;;;;;;4.87;1.63;;;15.50;99.90;;;;;;4951384;29;20501;-79
2022/11/07 11:20:54;;;;;;;7.40;1.80;;;15.60;99.90;;;;;;4951778;28;20492;-78
2022/11/07 11:23:23;;;;;;;5.50;2.00;;;15.60;99.90;;;;;;4952082;29;20461;-80
2022/11/07 11:25:52;;;;;;;6.03;1.77;;;15.70;99.90;;;;;;4951049;28;20465;-80
2022/11/07 11:28:23;;;;;;;4.43;1.50;;;15.70;99.90;;;;;;4951943;29;20468;-80
2022/11/07 11:30:55;;;;;;;5.43;1.80;;;15.90;99.90;;;;;;4951376;28;20492;-79
2022/11/07 11:33:28;;;;;;;5.80;1.80;;;16.00;99.90;;;;;;4951680;29;20465;-80
2022/11/07 11:35:59;;;;;;;4.10;1.93;;;16.00;99.90;;;;;;4951351;29;20461;-80
2022/11/07 11:38:31;;;;;;;4.60;2.03;;;16.00;99.90;;;;;;4951927;29;20490;-80
2022/11/07 11:41:01;;;;;;;8.50;2.53;;;16.00;99.90;;;;;;4951326;28;20497;-79
2022/11/07 11:43:36;;;;;;;4.50;1.87;;;16.00;99.90;;;;;;4951431;29;20466;-78
2022/11/07 11:46:10;;;;;;;6.50;1.70;;;16.00;99.90;;;;;;4950275;29;20452;-83
2022/11/07 11:48:43;;;;;;;4.07;2.00;;;16.00;99.90;;;;;;4951555;29;20941;-79
2022/11/07 11:51:18;;;;;;;10.10;2.07;;;16.00;99.90;;;;;;4951482;28;20488;-80
2022/11/07 11:53:45;;;;;;;6.27;1.97;;;15.80;99.90;;;;;;4951073;29;20950;-78
2022/11/07 11:56:26;;;;;;;4.50;1.53;;;15.90;99.90;;;;;;4951036;29;20456;-79
2022/11/07 11:59:09;;;;;;;3.40;1.70;;;16.00;99.90;;;;;;4950756;29;20497;-79
2022/11/07 12:01:43;;;;;;;4.50;2.00;;;15.90;99.90;;;;;;4950800;28;20500;-80
2022/11/07 12:04:35;;;;;;;5.37;1.83;;;15.80;99.90;;;;;;4950318;28;20472;-76
2022/11/07 12:07:12;;;;;;;6.10;1.80;;;15.90;99.90;;;;;;4955238;28;21012;-79
2022/11/07 12:09:46;;;;;;;5.77;2.07;;;15.90;99.90;;;;;;4955086;29;20988;-78
2022/11/07 12:12:28;;;;;;;3.37;1.53;;;15.80;99.90;;;;;;4955145;28;20482;-77
2022/11/07 12:15:11;;;;;;;6.17;1.60;;;15.80;99.90;;;;;;4954236;28;20448;-78
2022/11/07 12:17:45;;;;;;;5.40;1.83;;;15.70;99.90;;;;;;4955130;29;20528;-80
2022/11/07 12:20:19;;;;;;;4.43;1.80;;;15.60;99.90;;;;;;4955034;29;20459;-77
2022/11/07 12:23:12;;;;;;;4.30;1.80;;;15.50;99.90;;;;;;4954654;29;20960;-79
2022/11/07 12:25:46;;;;;;;2.70;1.60;;;15.40;99.90;;;;;;4954818;28;21103;-76
2022/11/07 12:28:32;;;;;;;4.87;1.93;;;15.40;99.90;;;;;;4954494;29;20453;-80
2022/11/07 12:31:10;;;;;;;5.33;1.60;;;15.40;99.90;;;;;;4954058;28;20481;-79
2022/11/07 12:33:45;;;;;;;2.97;1.67;;;15.30;99.90;;;;;;4955176;29;20445;-75
2022/11/07 12:36:23;;;;;;;6.93;2.13;;;15.40;99.90;;;;;;4954040;29;20457;-80
2022/11/07 12:39:15;;;;;;;4.77;1.90;;;15.40;99.90;;;;;;4954666;29;21034;-78
2022/11/07 12:41:50;;;;;;;6.07;1.87;;;15.50;99.90;;;;;;4952351;28;20497;-79
2022/11/07 12:44:41;;;;;;;7.60;1.67;;;15.50;99.90;;;;;;4953192;29;20452;-80
2022/11/07 12:47:17;;;;;;;6.47;2.60;;;15.40;99.90;;;;;;4951988;28;20481;-79
2022/11/07 12:50:06;;;;;;;3.63;1.93;;;15.40;99.90;;;;;;4953732;28;20842;-76
2022/11/07 12:52:49;;;;;;;2.87;1.33;;;15.40;99.90;;;;;;4955766;28;20485;-79
2022/11/07 12:55:25;;;;;;;5.53;2.00;;;15.40;99.90;;;;;;4953785;29;20833;-77
2022/11/07 12:57:54;;;;;;;3.57;1.70;;;15.50;99.90;;;;;;4954831;29;21195;-78
2022/11/07 13:00:24;;;;;;;4.57;1.90;;;15.50;99.90;;;;;;4953550;28;20536;-79
2022/11/07 13:03:06;;;;;;;5.00;1.90;;;15.50;99.90;;;;;;4954174;29;20905;-78
2022/11/07 13:05:40;;;;;;;4.90;1.40;;;15.50;99.90;;;;;;4953417;29;20461;-77
2022/11/07 13:08:15;;;;;;;6.00;2.33;;;15.50;99.90;;;;;;4954029;29;20448;-79
2022/11/07 13:10:52;;;;;;;7.80;2.23;;;15.60;99.90;;;;;;4953682;28;20742;-75
2022/11/07 13:13:23;;;;;;;6.40;1.30;;;15.50;99.90;;;;;;4954251;29;20450;-79
2022/11/07 13:15:50;;;;;;;6.47;1.87;;;15.60;99.90;;;;;;4952943;28;21068;-78
2022/11/07 13:18:24;;;;;;;7.20;2.10;;;15.50;99.90;;;;;;4953803;29;20498;-80
2022/11/07 13:20:59;;;;;;;5.73;2.13;;;15.50;99.90;;;;;;4953616;28;20493;-79
2022/11/07 13:23:27;;;;;;;3.67;1.73;;;15.60;99.90;;;;;;4953480;29;20442;-79
2022/11/07 13:25:59;;;;;;;3.97;2.00;;;15.60;99.90;;;;;;4952870;29;20525;-79
2022/11/07 13:28:36;;;;;;;5.43;2.00;;;15.60;99.90;;;;;;4953705;29;20445;-80
2022/11/07 13:31:05;;;;;;;9.63;1.67;;;15.60;99.90;;;;;;4952735;28;20817;-80
2022/11/07 13:33:36;;;;;;;5.83;1.60;;;15.70;99.90;;;;;;4953296;29;20497;-79
2022/11/07 13:36:14;;;;;;;3.23;1.37;;;15.80;99.90;;;;;;4952721;29;20509;-80
2022/11/07 13:38:47;;;;;;;5.80;1.77;;;15.90;99.90;;;;;;4952676;29;20504;-79
2022/11/07 13:41:16;;;;;;;4.53;2.00;;;15.90;99.90;;;;;;4951978;28;20549;-78
2022/11/07 13:43:47;;;;;;;5.50;1.77;;;15.90;99.90;;;;;;4952321;29;20461;-79
2022/11/07 13:46:21;;;;;;;6.20;1.80;;;15.90;99.90;;;;;;4951576;29;20464;-78
2022/11/07 13:48:51;;;;;;;5.43;1.90;;;16.00;99.90;;;;;;4950957;29;20450;-79
2022/11/07 13:51:23;;;;;;;3.73;1.50;;;16.00;99.90;;;;;;4951836;28;20487;-79
2022/11/07 13:54:03;;;;;;;4.30;2.00;;;16.10;99.90;;;;;;4951989;29;20548;-79
2022/11/07 13:56:38;;;;;;;7.33;1.90;;;16.10;99.90;;;;;;4951563;29;20469;-79
2022/11/07 13:59:10;;;;;;;4.13;1.87;;;16.00;99.90;;;;;;4951802;29;20487;-78
2022/11/07 14:01:42;;;;;;;6.30;2.60;;;16.10;99.90;;;;;;4951666;28;20500;-77
2022/11/07 14:04:16;;;;;;;4.40;1.57;;;15.90;99.90;;;;;;4950684;29;20466;-76
2022/11/07 14:06:43;;;;;;;3.47;1.43;;;15.90;99.90;;;;;;4952103;29;21008;-76
2022/11/07 14:09:14;;;;;;;4.77;1.93;;;16.00;99.90;;;;;;4951198;29;20457;-79
2022/11/07 14:11:43;;;;;;;5.80;2.20;;;15.90;99.90;;;;;;4952166;28;20532;-78
2022/11/07 14:14:10;;;;;;;5.27;2.60;;;16.00;99.90;;;;;;4951348;28;20951;-78
2022/11/07 14:16:38;;;;;;;10.07;2.77;;;15.90;99.90;;;;;;4951762;29;20466;-78
2022/11/07 14:19:07;;;;;;;4.90;2.57;;;15.90;99.90;;;;;;4954062;29;20499;-78
2022/11/07 14:21:36;;;;;;;5.00;1.70;;;15.90;99.90;;;;;;4953466;28;20493;-78
2022/11/07 14:24:04;;;;;;;6.70;1.80;;;16.00;99.90;;;;;;4953841;29;20489;-79
2022/11/07 14:26:32;;;;;;;3.90;1.50;;;16.00;99.90;;;;;;4952271;29;20461;-80
2022/11/07 14:29:02;;;;;;;5.13;1.70;;;16.00;99.90;;;;;;4951455;28;20552;-80
2022/11/07 14:31:31;;;;;;;3.67;1.80;;;16.00;99.90;;;;;;4952569;28;21343;-78
2022/11/07 14:34:00;;;;;;;6.67;2.00;;;16.00;99.90;;;;;;4951882;29;20821;-77
2022/11/07 14:36:28;;;;;;;6.60;1.90;;;16.00;99.90;;;;;;4951779;29;20462;-78
2022/11/07 14:39:01;;;;;;;3.57;1.53;;;16.00;99.90;;;;;;4952446;29;20493;-77
2022/11/07 14:41:29;;;;;;;5.97;1.50;;;16.10;99.90;;;;;;4952087;28;20486;-79
2022/11/07 14:44:02;;;;;;;4.30;1.70;;;16.10;99.90;;;;;;4952206;29;20461;-77
2022/11/07 14:46:30;;;;;;;2.20;1.53;;;16.10;99.90;;;;;;4951768;29;20468;-80
2022/11/07 14:48:57;;;;;;;5.23;1.60;;;16.10;99.90;;;;;;4952461;29;20479;-79
2022/11/07 14:51:26;;;;;;;3.90;1.60;;;16.00;99.90;;;;;;4951229;28;20477;-80
2022/11/07 14:53:57;;;;;;;6.07;2.07;;;16.10;99.90;;;;;;4952168;28;21052;-78
2022/11/07 14:56:28;;;;;;;3.70;1.67;;;16.10;99.90;;;;;;4952188;29;20453;-80
2022/11/07 14:58:55;;;;;;;5.50;1.83;;;16.10;99.90;;;;;;4952059;29;20898;-79
2022/11/07 15:01:29;;;;;;;6.10;1.90;;;16.10;99.90;;;;;;4951605;28;20491;-80
2022/11/07 15:03:58;;;;;;;5.37;1.97;;;16.10;99.90;;;;;;4952294;29;20944;-80
2022/11/07 15:06:32;;;;;;;10.33;2.27;;;16.00;99.90;;;;;;4952000;29;20461;-78
2022/11/07 15:09:01;;;;;;;7.33;2.70;;;16.00;99.90;;;;;;4951743;29;20450;-77
2022/11/07 15:11:31;;;;;;;7.93;3.47;;;15.90;99.90;;;;;;4951968;28;20489;-75
2022/11/07 15:13:59;;;;;;;8.50;3.00;;;15.80;99.90;;;;;;4952176;29;20525;-79
2022/11/07 15:16:32;;;;;;;4.57;2.40;;;15.70;99.90;;;;;;4952274;29;20469;-78
2022/11/07 15:19:01;;;;;;;8.73;3.73;;;15.60;99.90;;;;;;4951921;29;20567;-79
2022/11/07 15:21:30;;;;;;;8.00;3.30;;;15.60;99.90;;;;;;4951931;28;20491;-77
2022/11/07 15:23:57;;;;;;;8.20;2.30;;;15.50;99.90;;;;;;4951056;29;20915;-75
2022/11/07 15:26:35;;;;;;;6.23;2.60;;;15.60;99.90;;;;;;4952474;29;20481;-80
2022/11/07 15:29:14;;;;;;;5.10;2.10;;;15.60;99.90;;;;;;4953171;29;20450;-78
2022/11/07 15:31:48;;;;;;;5.20;2.90;;;15.60;99.90;;;;;;4952782;28;20484;-80
2022/11/07 15:34:18;;;;;;;7.67;2.90;;;15.60;99.90;;;;;;4951733;29;20516;-80
2022/11/07 15:36:45;;;;;;;5.30;2.53;;;15.60;99.90;;;;;;4952411;29;20548;-80
2022/11/07 15:39:13;;;;;;;5.57;2.53;;;15.60;99.90;;;;;;4954418;28;20500;-79
2022/11/07 15:41:40;;;;;;;6.07;2.83;;;15.60;99.90;;;;;;4957219;28;20485;-80
2022/11/07 15:44:07;;;;;;;6.37;2.50;;;15.60;99.90;;;;;;4958555;29;20465;-79
2022/11/07 15:46:37;;;;;;;3.90;2.43;;;15.70;99.90;;;;;;4959847;29;20469;-79
2022/11/07 15:49:06;;;;;;;10.13;3.63;;;15.60;99.90;;;;;;4960105;29;20443;-79
2022/11/07 15:51:33;;;;;;;6.10;2.63;;;15.60;99.90;;;;;;4958669;28;20572;-76
2022/11/07 15:53:59;;;;;;;4.40;2.57;;;15.60;99.90;;;;;;4959305;29;20921;-79
2022/11/07 15:56:28;;;;;;;6.20;3.37;;;15.60;99.90;;;;;;4959773;29;20560;-80
2022/11/07 15:58:55;;;;;;;5.03;2.97;;;15.60;99.90;;;;;;4959369;28;20555;-80
2022/11/07 16:01:22;;;;;;;5.33;2.83;;;15.50;99.90;;;;;;4964132;28;20494;-77
2022/11/07 16:03:49;;;;;;;11.33;3.80;;;15.40;99.90;;;;;;4966960;29;20488;-77
2022/11/07 16:06:23;;;;;;;2.97;2.10;;;15.50;99.90;;;;;;4966110;29;20461;-77
2022/11/07 16:08:50;;;;;;;5.30;3.00;;;15.50;99.90;;;;;;4967952;29;20590;-75
2022/11/07 16:11:17;;;;;;;7.00;3.17;;;15.50;99.90;;;;;;4967266;28;20470;-79
2022/11/07 16:13:44;;;;;;;6.20;2.87;;;15.40;99.90;;;;;;4959460;29;20461;-79
2022/11/07 16:16:19;;;;;;;4.10;2.80;;;15.40;99.90;;;;;;4954528;29;20461;-78
2022/11/07 16:18:48;;;;;;;5.73;2.77;;;15.40;99.90;;;;;;4954503;29;20457;-78
2022/11/07 16:21:16;;;;;;;10.17;3.17;;;15.40;99.90;;;;;;4955579;28;20488;-79
2022/11/07 16:23:46;;;;;;;6.30;3.13;;;15.40;99.90;;;;;;4955842;29;20461;-80
2022/11/07 16:26:14;;;;;;;6.70;3.20;;;15.40;99.90;;;;;;4952348;29;20554;-75
2022/11/07 16:28:41;;;;;;;11.87;3.10;;;15.40;99.90;;;;;;4950406;29;20465;-76
2022/11/07 16:31:08;;;;;;;9.80;3.00;;;15.30;99.90;;;;;;4952382;28;21451;-79
2022/11/07 16:33:35;;;;;;;7.47;3.37;;;15.30;99.90;;;;;;4954336;29;20472;-79
2022/11/07 16:36:11;;;;;;;7.50;3.77;;;15.30;99.90;;;;;;4951973;29;20468;-79
2022/11/07 16:38:40;;;;;;;10.50;4.90;;;15.30;99.90;;;;;;4955168;29;20465;-77
2022/11/07 16:41:08;;;;;;;12.00;5.87;;;15.20;99.90;;;;;;4954009;28;20591;-78
2022/11/07 16:43:36;;;;;;;9.20;5.20;;;15.20;99.90;;;;;;4954292;29;20465;-78
2022/11/07 16:46:11;;;;;;;9.77;5.70;;;15.20;99.90;;;;;;4954918;29;20469;-79
2022/11/07 16:48:38;;;;;;;10.20;6.20;;;15.20;99.90;;;;;;4954760;29;20461;-79
2022/11/07 16:51:05;;;;;;;11.57;6.00;;;15.10;99.90;;;;;;4951615;28;20631;-80
2022/11/07 16:53:32;;;;;;;9.77;6.40;;;15.10;99.90;;;;;;4952916;29;20457;-79
2022/11/07 16:56:03;;;;;;;11.43;6.37;;;15.10;99.90;;;;;;4951892;29;20461;-80
2022/11/07 16:58:31;;;;;;;12.40;5.70;;;15.00;99.90;;;;;;4952342;29;20741;-79
2022/11/07 17:01:00;;;;;;;11.60;5.40;;;14.90;99.90;;;;;;4952845;28;20728;-80
2022/11/07 17:03:28;;;;;;;14.70;6.00;;;14.90;99.90;;;;;;4954054;29;20793;-80
2022/11/07 17:05:55;;;;;;;13.47;5.33;;;14.80;99.90;;;;;;4951318;29;20469;-79
2022/11/07 17:08:25;;;;;;;7.93;5.00;;;14.80;99.90;;;;;;4952693;29;20484;-75
2022/11/07 17:10:52;;;;;;;7.20;5.07;;;14.70;99.90;;;;;;4952220;29;20481;-76
2022/11/07 17:13:21;;;;;;;10.47;5.17;;;14.60;99.90;;;;;;4952243;28;20454;-78
2022/11/07 17:15:49;;;;;;;11.77;6.73;;;14.60;99.90;;;;;;4951100;29;20465;-78
2022/11/07 17:18:19;;;;;;;8.83;5.90;;;14.50;99.90;;;;;;4951497;29;20477;-79
2022/11/07 17:20:47;;;;;;;12.67;6.83;;;14.50;99.90;;;;;;4951860;28;21061;-80
2022/11/07 17:23:14;;;;;;;12.00;6.90;;;14.40;99.90;;;;;;4952081;29;20466;-79
2022/11/07 17:25:46;;;;;;;11.10;6.70;;;14.30;99.90;;;;;;4951385;28;20987;-79
2022/11/07 17:28:13;;;;;;;13.10;6.73;;;14.20;99.90;;;;;;4951247;29;20954;-78
2022/11/07 17:30:41;;;;;;;10.07;6.07;;;14.20;99.90;;;;;;4950620;28;20481;-77
2022/11/07 17:33:08;;;;;;;11.90;6.90;;;14.10;99.90;;;;;;4951509;28;20462;-76
2022/11/07 17:35:36;;;;;;;14.60;7.83;;;14.10;99.90;;;;;;4951515;29;20457;-77
2022/11/07 17:38:03;;;;;;;12.90;7.10;;;14.10;99.90;;;;;;4952315;28;20457;-78
2022/11/07 17:40:32;;;;;;;13.57;7.03;;;14.10;99.90;;;;;;4953587;28;20534;-77
2022/11/07 17:43:00;;;;;;;11.83;6.20;;;14.10;99.90;;;;;;4952167;29;20462;-79
2022/11/07 17:45:27;;;;;;;12.93;7.03;;;13.90;99.90;;;;;;4951765;29;20458;-77
2022/11/07 17:47:55;;;;;;;14.20;8.30;;;13.90;99.90;;;;;;4952095;29;20462;-79
2022/11/07 17:50:22;;;;;;;15.53;8.77;;;13.80;99.90;;;;;;4952462;28;20474;-80
2022/11/07 17:52:51;;;;;;;10.70;7.80;;;13.70;99.90;;;;;;4951583;29;20839;-78
2022/11/07 17:55:18;;;;;;;10.40;7.43;;;13.60;99.90;;;;;;4951373;29;20741;-79
2022/11/07 17:57:45;;;;;;;14.00;7.90;;;13.50;99.90;;;;;;4950601;29;20824;-79
2022/11/07 18:00:16;;;;;;;12.53;7.80;;;13.50;99.90;;;;;;4948538;29;20493;-78
2022/11/07 18:02:43;;;;;;;13.03;7.07;;;13.40;99.90;;;;;;4947939;28;20450;-78